sensor_id;sensor_type;location;lat;lon;timestamp;temperature;humidity
35894;DHT22;21994;48.204;16.516;2023-04-01T00:01:03;11.80;96.20
35894;DHT22;21994;48.204;16.516;2023-04-01T00:03:30;11.80;96.30
35894;DHT22;21994;48.204;16.516;2023-04-01T00:05:59;11.80;96.50
35894;DHT22;21994;48.204;16.516;2023-04-01T00:08:26;11.80;96.40
35894;DHT22;21994;48.204;16.516;2023-04-01T00:10:53;11.70;96.60
35894;DHT22;21994;48.204;16.516;2023-04-01T00:13:20;11.70;96.60
35894;DHT22;21994;48.204;16.516;2023-04-01T00:15:46;11.70;96.70
35894;DHT22;21994;48.204;16.516;2023-04-01T00:18:14;11.60;96.70
35894;DHT22;21994;48.204;16.516;2023-04-01T00:20:45;11.60;96.70
35894;DHT22;21994;48.204;16.516;2023-04-01T00:23:12;11.60;96.80
35894;DHT22;21994;48.204;16.516;2023-04-01T00:25:39;11.50;96.90
35894;DHT22;21994;48.204;16.516;2023-04-01T00:28:05;11.50;96.80
35894;DHT22;21994;48.204;16.516;2023-04-01T00:30:35;11.50;96.90
35894;DHT22;21994;48.204;16.516;2023-04-01T00:33:02;11.50;97.10
35894;DHT22;21994;48.204;16.516;2023-04-01T00:35:28;11.50;97.10
35894;DHT22;21994;48.204;16.516;2023-04-01T00:37:55;11.50;97.10
35894;DHT22;21994;48.204;16.516;2023-04-01T00:42:57;11.40;97.30
35894;DHT22;21994;48.204;16.516;2023-04-01T00:48:10;11.40;97.20
35894;DHT22;21994;48.204;16.516;2023-04-01T00:50:42;11.40;97.40
35894;DHT22;21994;48.204;16.516;2023-04-01T00:53:12;11.30;97.50
35894;DHT22;21994;48.204;16.516;2023-04-01T00:55:41;11.20;97.50
35894;DHT22;21994;48.204;16.516;2023-04-01T00:58:14;11.20;97.50
35894;DHT22;21994;48.204;16.516;2023-04-01T01:00:43;11.10;97.70
35894;DHT22;21994;48.204;16.516;2023-04-01T01:03:09;11.20;97.60
35894;DHT22;21994;48.204;16.516;2023-04-01T01:06:00;11.10;97.60
35894;DHT22;21994;48.204;16.516;2023-04-01T01:18:00;11.20;97.70
35894;DHT22;21994;48.204;16.516;2023-04-01T01:26:14;11.10;97.70
35894;DHT22;21994;48.204;16.516;2023-04-01T01:35:12;11.40;97.20
35894;DHT22;21994;48.204;16.516;2023-04-01T01:37:46;11.30;97.20
35894;DHT22;21994;48.204;16.516;2023-04-01T01:40:13;11.30;97.20
35894;DHT22;21994;48.204;16.516;2023-04-01T01:42:46;11.20;97.40
35894;DHT22;21994;48.204;16.516;2023-04-01T01:45:16;11.20;97.30
35894;DHT22;21994;48.204;16.516;2023-04-01T01:47:45;11.20;97.30
35894;DHT22;21994;48.204;16.516;2023-04-01T01:50:13;11.20;97.30
35894;DHT22;21994;48.204;16.516;2023-04-01T01:52:39;11.20;97.30
35894;DHT22;21994;48.204;16.516;2023-04-01T01:58:03;11.00;97.60
35894;DHT22;21994;48.204;16.516;2023-04-01T02:00:34;11.00;97.60
35894;DHT22;21994;48.204;16.516;2023-04-01T02:03:01;11.00;97.60
35894;DHT22;21994;48.204;16.516;2023-04-01T02:05:29;10.90;97.60
35894;DHT22;21994;48.204;16.516;2023-04-01T02:11:13;10.90;97.80
35894;DHT22;21994;48.204;16.516;2023-04-01T02:19:18;10.80;98.00
35894;DHT22;21994;48.204;16.516;2023-04-01T02:21:51;10.70;98.20
35894;DHT22;21994;48.204;16.516;2023-04-01T02:24:23;10.70;98.30
35894;DHT22;21994;48.204;16.516;2023-04-01T02:26:51;10.60;98.30
35894;DHT22;21994;48.204;16.516;2023-04-01T02:29:22;10.60;98.40
35894;DHT22;21994;48.204;16.516;2023-04-01T02:31:51;10.50;98.60
35894;DHT22;21994;48.204;16.516;2023-04-01T02:34:21;10.50;98.80
35894;DHT22;21994;48.204;16.516;2023-04-01T02:36:49;10.50;99.00
35894;DHT22;21994;48.204;16.516;2023-04-01T02:39:16;10.60;99.10
35894;DHT22;21994;48.204;16.516;2023-04-01T02:41:44;10.60;99.10
35894;DHT22;21994;48.204;16.516;2023-04-01T02:44:13;10.60;99.10
35894;DHT22;21994;48.204;16.516;2023-04-01T02:46:42;10.60;99.20
35894;DHT22;21994;48.204;16.516;2023-04-01T02:49:08;10.70;99.00
35894;DHT22;21994;48.204;16.516;2023-04-01T02:51:35;10.70;99.00
35894;DHT22;21994;48.204;16.516;2023-04-01T02:54:01;10.70;99.20
35894;DHT22;21994;48.204;16.516;2023-04-01T02:56:27;10.60;99.20
35894;DHT22;21994;48.204;16.516;2023-04-01T02:58:54;10.60;99.30
35894;DHT22;21994;48.204;16.516;2023-04-01T03:01:20;10.60;99.30
35894;DHT22;21994;48.204;16.516;2023-04-01T03:03:46;10.50;99.40
35894;DHT22;21994;48.204;16.516;2023-04-01T03:06:14;10.50;99.40
35894;DHT22;21994;48.204;16.516;2023-04-01T03:08:41;10.50;99.30
35894;DHT22;21994;48.204;16.516;2023-04-01T03:11:07;10.50;99.20
35894;DHT22;21994;48.204;16.516;2023-04-01T03:13:36;10.70;99.10
35894;DHT22;21994;48.204;16.516;2023-04-01T03:16:02;10.70;99.00
35894;DHT22;21994;48.204;16.516;2023-04-01T03:18:29;10.70;99.20
35894;DHT22;21994;48.204;16.516;2023-04-01T03:20:55;10.70;99.10
35894;DHT22;21994;48.204;16.516;2023-04-01T03:23:20;10.80;99.30
35894;DHT22;21994;48.204;16.516;2023-04-01T03:25:47;10.70;99.70
35894;DHT22;21994;48.204;16.516;2023-04-01T03:28:13;10.60;99.80
35894;DHT22;21994;48.204;16.516;2023-04-01T03:30:40;10.70;99.40
35894;DHT22;21994;48.204;16.516;2023-04-01T03:33:06;10.70;99.30
35894;DHT22;21994;48.204;16.516;2023-04-01T03:35:32;10.70;99.30
35894;DHT22;21994;48.204;16.516;2023-04-01T03:38:01;10.70;99.10
35894;DHT22;21994;48.204;16.516;2023-04-01T03:40:27;10.70;99.20
35894;DHT22;21994;48.204;16.516;2023-04-01T03:42:53;10.70;99.00
35894;DHT22;21994;48.204;16.516;2023-04-01T03:45:19;10.80;99.00
35894;DHT22;21994;48.204;16.516;2023-04-01T03:47:45;10.70;99.10
35894;DHT22;21994;48.204;16.516;2023-04-01T03:50:11;10.70;99.10
35894;DHT22;21994;48.204;16.516;2023-04-01T03:52:37;10.80;99.00
35894;DHT22;21994;48.204;16.516;2023-04-01T03:55:03;10.80;98.90
35894;DHT22;21994;48.204;16.516;2023-04-01T03:57:31;10.80;99.00
35894;DHT22;21994;48.204;16.516;2023-04-01T03:59:57;10.70;99.00
35894;DHT22;21994;48.204;16.516;2023-04-01T04:02:23;10.70;99.10
35894;DHT22;21994;48.204;16.516;2023-04-01T04:04:48;10.70;99.10
35894;DHT22;21994;48.204;16.516;2023-04-01T04:07:14;10.60;99.20
35894;DHT22;21994;48.204;16.516;2023-04-01T04:09:40;10.60;99.30
35894;DHT22;21994;48.204;16.516;2023-04-01T04:12:06;10.50;99.20
35894;DHT22;21994;48.204;16.516;2023-04-01T04:14:32;10.60;99.30
35894;DHT22;21994;48.204;16.516;2023-04-01T04:16:58;10.50;99.30
35894;DHT22;21994;48.204;16.516;2023-04-01T04:19:24;10.50;99.40
35894;DHT22;21994;48.204;16.516;2023-04-01T04:21:50;10.40;99.60
35894;DHT22;21994;48.204;16.516;2023-04-01T04:24:16;10.40;99.60
35894;DHT22;21994;48.204;16.516;2023-04-01T04:26:42;10.40;99.60
35894;DHT22;21994;48.204;16.516;2023-04-01T04:29:07;10.40;99.60
35894;DHT22;21994;48.204;16.516;2023-04-01T04:31:33;10.30;99.80
35894;DHT22;21994;48.204;16.516;2023-04-01T04:34:00;10.30;99.70
35894;DHT22;21994;48.204;16.516;2023-04-01T04:36:26;10.30;99.70
35894;DHT22;21994;48.204;16.516;2023-04-01T04:38:53;10.30;99.70
35894;DHT22;21994;48.204;16.516;2023-04-01T04:41:19;10.30;99.70
35894;DHT22;21994;48.204;16.516;2023-04-01T04:43:55;10.20;99.80
35894;DHT22;21994;48.204;16.516;2023-04-01T04:46:22;10.20;99.80
35894;DHT22;21994;48.204;16.516;2023-04-01T04:48:48;10.20;99.80
35894;DHT22;21994;48.204;16.516;2023-04-01T04:51:16;10.20;99.90
35894;DHT22;21994;48.204;16.516;2023-04-01T04:53:44;10.10;99.90
35894;DHT22;21994;48.204;16.516;2023-04-01T04:56:10;10.00;99.90
35894;DHT22;21994;48.204;16.516;2023-04-01T04:58:37;10.10;99.90
35894;DHT22;21994;48.204;16.516;2023-04-01T05:01:11;10.10;99.90
35894;DHT22;21994;48.204;16.516;2023-04-01T05:03:39;10.10;99.90
35894;DHT22;21994;48.204;16.516;2023-04-01T05:06:06;10.10;99.90
35894;DHT22;21994;48.204;16.516;2023-04-01T05:08:33;10.00;99.90
35894;DHT22;21994;48.204;16.516;2023-04-01T05:11:00;10.10;99.90
35894;DHT22;21994;48.204;16.516;2023-04-01T05:13:27;10.10;99.90
35894;DHT22;21994;48.204;16.516;2023-04-01T05:15:53;10.10;99.90
35894;DHT22;21994;48.204;16.516;2023-04-01T05:18:21;10.20;99.90
35894;DHT22;21994;48.204;16.516;2023-04-01T05:20:52;10.10;99.90
35894;DHT22;21994;48.204;16.516;2023-04-01T05:23:19;10.10;99.90
35894;DHT22;21994;48.204;16.516;2023-04-01T05:25:47;10.10;99.90
35894;DHT22;21994;48.204;16.516;2023-04-01T05:28:15;10.20;99.90
35894;DHT22;21994;48.204;16.516;2023-04-01T05:30:42;10.30;99.90
35894;DHT22;21994;48.204;16.516;2023-04-01T05:33:10;10.30;99.90
35894;DHT22;21994;48.204;16.516;2023-04-01T05:35:37;10.40;99.90
35894;DHT22;21994;48.204;16.516;2023-04-01T05:38:03;10.40;99.80
35894;DHT22;21994;48.204;16.516;2023-04-01T05:40:30;10.50;99.80
35894;DHT22;21994;48.204;16.516;2023-04-01T05:42:56;10.60;99.60
35894;DHT22;21994;48.204;16.516;2023-04-01T05:45:22;10.60;99.50
35894;DHT22;21994;48.204;16.516;2023-04-01T05:47:48;10.70;99.60
35894;DHT22;21994;48.204;16.516;2023-04-01T05:50:14;10.70;99.40
35894;DHT22;21994;48.204;16.516;2023-04-01T05:52:40;10.80;99.30
35894;DHT22;21994;48.204;16.516;2023-04-01T05:55:07;10.90;99.30
35894;DHT22;21994;48.204;16.516;2023-04-01T05:57:33;10.90;99.30
35894;DHT22;21994;48.204;16.516;2023-04-01T05:59:59;11.00;99.40
35894;DHT22;21994;48.204;16.516;2023-04-01T06:02:24;11.00;99.60
35894;DHT22;21994;48.204;16.516;2023-04-01T06:05:01;11.10;99.20
35894;DHT22;21994;48.204;16.516;2023-04-01T06:07:34;11.10;99.00
35894;DHT22;21994;48.204;16.516;2023-04-01T06:10:00;11.20;99.10
35894;DHT22;21994;48.204;16.516;2023-04-01T06:15:43;11.20;98.80
35894;DHT22;21994;48.204;16.516;2023-04-01T06:47:23;11.70;97.90
35894;DHT22;21994;48.204;16.516;2023-04-01T06:53:01;11.80;97.90
35894;DHT22;21994;48.204;16.516;2023-04-01T06:55:55;11.90;97.80
35894;DHT22;21994;48.204;16.516;2023-04-01T06:58:31;12.00;97.80
35894;DHT22;21994;48.204;16.516;2023-04-01T07:01:04;12.00;97.90
35894;DHT22;21994;48.204;16.516;2023-04-01T07:03:44;12.00;97.80
35894;DHT22;21994;48.204;16.516;2023-04-01T07:09:20;12.00;97.70
35894;DHT22;21994;48.204;16.516;2023-04-01T07:11:50;12.20;97.80
35894;DHT22;21994;48.204;16.516;2023-04-01T07:14:37;12.30;96.90
35894;DHT22;21994;48.204;16.516;2023-04-01T07:17:19;12.30;97.60
35894;DHT22;21994;48.204;16.516;2023-04-01T07:20:05;12.30;97.60
35894;DHT22;21994;48.204;16.516;2023-04-01T07:22:49;12.30;97.80
35894;DHT22;21994;48.204;16.516;2023-04-01T07:25:18;12.30;97.40
35894;DHT22;21994;48.204;16.516;2023-04-01T07:27:46;12.40;97.80
35894;DHT22;21994;48.204;16.516;2023-04-01T07:30:18;12.40;97.10
35894;DHT22;21994;48.204;16.516;2023-04-01T07:35:40;12.50;97.30
35894;DHT22;21994;48.204;16.516;2023-04-01T07:44:05;12.60;96.50
35894;DHT22;21994;48.204;16.516;2023-04-01T07:49:55;12.60;96.40
35894;DHT22;21994;48.204;16.516;2023-04-01T07:55:20;13.30;95.40
35894;DHT22;21994;48.204;16.516;2023-04-01T07:57:53;13.80;94.60
35894;DHT22;21994;48.204;16.516;2023-04-01T08:00:59;14.00;94.50
35894;DHT22;21994;48.204;16.516;2023-04-01T08:06:36;14.80;93.70
35894;DHT22;21994;48.204;16.516;2023-04-01T08:15:21;16.00;92.50
35894;DHT22;21994;48.204;16.516;2023-04-01T08:21:41;16.60;92.00
35894;DHT22;21994;48.204;16.516;2023-04-01T08:23:49;16.40;91.00
35894;DHT22;21994;48.204;16.516;2023-04-01T08:29:18;16.70;90.80
35894;DHT22;21994;48.204;16.516;2023-04-01T08:32:06;16.20;90.60
35894;DHT22;21994;48.204;16.516;2023-04-01T08:34:39;15.80;91.40
35894;DHT22;21994;48.204;16.516;2023-04-01T08:37:28;15.50;91.70
35894;DHT22;21994;48.204;16.516;2023-04-01T08:40:00;15.20;91.80
35894;DHT22;21994;48.204;16.516;2023-04-01T08:43:19;15.00;92.30
35894;DHT22;21994;48.204;16.516;2023-04-01T09:01:08;14.50;92.90
35894;DHT22;21994;48.204;16.516;2023-04-01T09:12:25;17.00;89.60
35894;DHT22;21994;48.204;16.516;2023-04-01T09:23:48;14.50;92.50
35894;DHT22;21994;48.204;16.516;2023-04-01T09:35:21;13.90;92.90
35894;DHT22;21994;48.204;16.516;2023-04-01T09:47:48;14.00;93.40
35894;DHT22;21994;48.204;16.516;2023-04-01T10:01:52;13.90;93.30
35894;DHT22;21994;48.204;16.516;2023-04-01T10:07:42;14.20;93.10
35894;DHT22;21994;48.204;16.516;2023-04-01T10:28:28;14.90;91.80
35894;DHT22;21994;48.204;16.516;2023-04-01T10:31:35;14.90;92.00
35894;DHT22;21994;48.204;16.516;2023-04-01T10:52:27;15.60;87.70
35894;DHT22;21994;48.204;16.516;2023-04-01T11:07:35;14.60;91.10
35894;DHT22;21994;48.204;16.516;2023-04-01T11:10:31;14.60;91.70
35894;DHT22;21994;48.204;16.516;2023-04-01T11:19:10;14.90;92.30
35894;DHT22;21994;48.204;16.516;2023-04-01T11:37:07;16.00;90.60
35894;DHT22;21994;48.204;16.516;2023-04-01T12:06:23;14.60;91.30
35894;DHT22;21994;48.204;16.516;2023-04-01T12:09:18;14.80;91.00
35894;DHT22;21994;48.204;16.516;2023-04-01T12:11:53;14.90;90.30
35894;DHT22;21994;48.204;16.516;2023-04-01T12:14:59;15.10;90.70
35894;DHT22;21994;48.204;16.516;2023-04-01T12:17:36;15.10;90.30
35894;DHT22;21994;48.204;16.516;2023-04-01T12:26:00;15.20;91.20
35894;DHT22;21994;48.204;16.516;2023-04-01T12:46:16;18.00;83.90
35894;DHT22;21994;48.204;16.516;2023-04-01T12:52:30;17.80;81.60
35894;DHT22;21994;48.204;16.516;2023-04-01T12:55:27;17.40;81.80
35894;DHT22;21994;48.204;16.516;2023-04-01T13:13:41;15.00;92.00
35894;DHT22;21994;48.204;16.516;2023-04-01T13:16:29;14.80;92.00
35894;DHT22;21994;48.204;16.516;2023-04-01T13:19:15;14.90;92.40
35894;DHT22;21994;48.204;16.516;2023-04-01T13:21:50;15.40;91.80
35894;DHT22;21994;48.204;16.516;2023-04-01T13:27:42;16.50;91.30
35894;DHT22;21994;48.204;16.516;2023-04-01T13:39:35;16.90;85.70
35894;DHT22;21994;48.204;16.516;2023-04-01T13:42:43;16.90;85.80
35894;DHT22;21994;48.204;16.516;2023-04-01T13:45:46;16.70;85.30
35894;DHT22;21994;48.204;16.516;2023-04-01T13:48:50;16.80;90.70
35894;DHT22;21994;48.204;16.516;2023-04-01T13:51:52;16.90;89.40
35894;DHT22;21994;48.204;16.516;2023-04-01T13:54:34;17.10;88.60
35894;DHT22;21994;48.204;16.516;2023-04-01T14:14:45;17.00;80.50
35894;DHT22;21994;48.204;16.516;2023-04-01T14:32:55;17.90;77.90
35894;DHT22;21994;48.204;16.516;2023-04-01T14:47:11;18.70;76.90
35894;DHT22;21994;48.204;16.516;2023-04-01T14:49:52;18.70;77.10
35894;DHT22;21994;48.204;16.516;2023-04-01T14:52:31;18.60;75.20
35894;DHT22;21994;48.204;16.516;2023-04-01T14:55:43;18.20;75.90
35894;DHT22;21994;48.204;16.516;2023-04-01T15:09:24;18.00;74.40
35894;DHT22;21994;48.204;16.516;2023-04-01T15:32:27;16.90;78.00
35894;DHT22;21994;48.204;16.516;2023-04-01T15:52:05;17.40;79.40
35894;DHT22;21994;48.204;16.516;2023-04-01T16:12:19;16.90;81.80
35894;DHT22;21994;48.204;16.516;2023-04-01T16:14:56;16.50;82.80
35894;DHT22;21994;48.204;16.516;2023-04-01T16:17:52;16.50;83.40
35894;DHT22;21994;48.204;16.516;2023-04-01T16:20:43;16.50;83.00
35894;DHT22;21994;48.204;16.516;2023-04-01T16:29:35;15.90;84.70
35894;DHT22;21994;48.204;16.516;2023-04-01T16:32:41;15.80;85.00
35894;DHT22;21994;48.204;16.516;2023-04-01T16:35:30;15.70;86.00
35894;DHT22;21994;48.204;16.516;2023-04-01T16:38:15;15.70;85.60
35894;DHT22;21994;48.204;16.516;2023-04-01T16:41:12;15.50;86.60
35894;DHT22;21994;48.204;16.516;2023-04-01T16:44:17;15.20;87.50
35894;DHT22;21994;48.204;16.516;2023-04-01T16:49:32;15.00;88.10
35894;DHT22;21994;48.204;16.516;2023-04-01T16:54:41;14.70;89.80
35894;DHT22;21994;48.204;16.516;2023-04-01T16:57:42;14.50;90.00
35894;DHT22;21994;48.204;16.516;2023-04-01T17:02:51;14.30;90.70
35894;DHT22;21994;48.204;16.516;2023-04-01T17:18:01;13.70;92.30
35894;DHT22;21994;48.204;16.516;2023-04-01T17:20:49;13.60;92.30
35894;DHT22;21994;48.204;16.516;2023-04-01T17:26:02;13.50;92.00
35894;DHT22;21994;48.204;16.516;2023-04-01T17:32:28;13.20;92.70
35894;DHT22;21994;48.204;16.516;2023-04-01T17:37:54;13.00;93.30
35894;DHT22;21994;48.204;16.516;2023-04-01T17:52:32;12.50;95.30
35894;DHT22;21994;48.204;16.516;2023-04-01T17:55:29;12.40;95.70
35894;DHT22;21994;48.204;16.516;2023-04-01T18:00:57;12.20;96.00
35894;DHT22;21994;48.204;16.516;2023-04-01T18:10:07;12.10;96.50
35894;DHT22;21994;48.204;16.516;2023-04-01T18:16:55;12.10;96.60
35894;DHT22;21994;48.204;16.516;2023-04-01T18:19:38;12.10;96.80
35894;DHT22;21994;48.204;16.516;2023-04-01T18:25:48;12.00;97.10
35894;DHT22;21994;48.204;16.516;2023-04-01T18:28:43;12.00;97.20
35894;DHT22;21994;48.204;16.516;2023-04-01T18:31:21;11.90;97.30
35894;DHT22;21994;48.204;16.516;2023-04-01T18:50:59;11.60;97.50
35894;DHT22;21994;48.204;16.516;2023-04-01T19:04:42;11.60;97.40
35894;DHT22;21994;48.204;16.516;2023-04-01T19:13:06;11.60;97.80
35894;DHT22;21994;48.204;16.516;2023-04-01T19:16:00;11.50;98.10
35894;DHT22;21994;48.204;16.516;2023-04-01T19:21:45;11.50;98.30
35894;DHT22;21994;48.204;16.516;2023-04-01T19:27:43;11.40;98.70
35894;DHT22;21994;48.204;16.516;2023-04-01T19:30:18;11.40;98.80
35894;DHT22;21994;48.204;16.516;2023-04-01T19:45:55;11.00;99.60
35894;DHT22;21994;48.204;16.516;2023-04-01T19:48:58;11.00;99.80
35894;DHT22;21994;48.204;16.516;2023-04-01T19:57:43;10.80;99.90
35894;DHT22;21994;48.204;16.516;2023-04-01T20:08:33;10.60;99.90
35894;DHT22;21994;48.204;16.516;2023-04-01T20:19:39;10.40;99.90
35894;DHT22;21994;48.204;16.516;2023-04-01T20:25:26;10.50;99.90
35894;DHT22;21994;48.204;16.516;2023-04-01T20:35:57;10.30;99.90
35894;DHT22;21994;48.204;16.516;2023-04-01T20:47:16;10.30;99.90
35894;DHT22;21994;48.204;16.516;2023-04-01T20:52:56;10.30;99.90
35894;DHT22;21994;48.204;16.516;2023-04-01T20:58:29;10.30;99.90
35894;DHT22;21994;48.204;16.516;2023-04-01T21:25:22;10.50;99.90
35894;DHT22;21994;48.204;16.516;2023-04-01T21:31:15;10.60;99.90
35894;DHT22;21994;48.204;16.516;2023-04-01T21:37:44;10.60;99.90
35894;DHT22;21994;48.204;16.516;2023-04-01T21:40:52;10.70;99.90
35894;DHT22;21994;48.204;16.516;2023-04-01T21:46:52;10.80;99.90
35894;DHT22;21994;48.204;16.516;2023-04-01T22:12:48;10.60;99.90
35894;DHT22;21994;48.204;16.516;2023-04-01T22:15:58;10.60;99.90
35894;DHT22;21994;48.204;16.516;2023-04-01T22:19:04;10.70;99.90
35894;DHT22;21994;48.204;16.516;2023-04-01T22:21:50;10.70;99.90
35894;DHT22;21994;48.204;16.516;2023-04-01T22:24:33;10.70;99.90
35894;DHT22;21994;48.204;16.516;2023-04-01T22:27:30;10.60;99.90
35894;DHT22;21994;48.204;16.516;2023-04-01T22:30:24;10.60;99.90
35894;DHT22;21994;48.204;16.516;2023-04-01T22:50:36;10.60;99.90
35894;DHT22;21994;48.204;16.516;2023-04-01T22:56:30;10.60;99.90
35894;DHT22;21994;48.204;16.516;2023-04-01T22:59:23;10.70;99.90
35894;DHT22;21994;48.204;16.516;2023-04-01T23:02:09;10.70;99.90
35894;DHT22;21994;48.204;16.516;2023-04-01T23:04:43;10.70;99.90
35894;DHT22;21994;48.204;16.516;2023-04-01T23:09:59;10.80;99.90
35894;DHT22;21994;48.204;16.516;2023-04-01T23:12:27;10.70;99.90
35894;DHT22;21994;48.204;16.516;2023-04-01T23:14:59;10.70;99.90
35894;DHT22;21994;48.204;16.516;2023-04-01T23:17:45;10.70;99.90
35894;DHT22;21994;48.204;16.516;2023-04-01T23:23:15;10.70;99.90
35894;DHT22;21994;48.204;16.516;2023-04-01T23:31:34;10.70;99.90
35894;DHT22;21994;48.204;16.516;2023-04-01T23:36:48;10.70;99.90
35894;DHT22;21994;48.204;16.516;2023-04-01T23:42:51;10.80;99.90
35894;DHT22;21994;48.204;16.516;2023-04-01T23:44:58;10.70;99.90
35894;DHT22;21994;48.204;16.516;2023-04-01T23:52:49;10.80;99.90
35894;DHT22;21994;48.204;16.516;2023-04-01T23:55:31;10.80;99.90
